sensor_id;sensor_type;location;lat;lon;timestamp;P1;durP1;ratioP1;P2;durP2;ratioP2
26060;SDS011;36331;51.378;0.018;2022-12-18T00:01:35;41.20;;;19.17;;
26060;SDS011;36331;51.378;0.018;2022-12-18T00:04:07;46.60;;;16.73;;
26060;SDS011;36331;51.378;0.018;2022-12-18T00:06:39;41.65;;;18.88;;
26060;SDS011;36331;51.378;0.018;2022-12-18T00:09:10;45.83;;;20.05;;
26060;SDS011;36331;51.378;0.018;2022-12-18T00:11:40;45.78;;;20.05;;
26060;SDS011;36331;51.378;0.018;2022-12-18T00:14:10;52.90;;;20.23;;
26060;SDS011;36331;51.378;0.018;2022-12-18T00:16:42;46.70;;;18.20;;
26060;SDS011;36331;51.378;0.018;2022-12-18T00:21:42;40.78;;;18.02;;
26060;SDS011;36331;51.378;0.018;2022-12-18T00:24:12;49.58;;;20.45;;
26060;SDS011;36331;51.378;0.018;2022-12-18T00:26:42;46.92;;;18.80;;
26060;SDS011;36331;51.378;0.018;2022-12-18T00:29:12;49.47;;;19.30;;
26060;SDS011;36331;51.378;0.018;2022-12-18T00:31:43;43.22;;;18.80;;
26060;SDS011;36331;51.378;0.018;2022-12-18T00:34:12;49.97;;;20.60;;
26060;SDS011;36331;51.378;0.018;2022-12-18T00:36:43;47.15;;;21.33;;
26060;SDS011;36331;51.378;0.018;2022-12-18T00:39:13;47.15;;;20.83;;
26060;SDS011;36331;51.378;0.018;2022-12-18T00:41:44;42.42;;;19.17;;
26060;SDS011;36331;51.378;0.018;2022-12-18T00:44:31;41.97;;;18.48;;
26060;SDS011;36331;51.378;0.018;2022-12-18T00:47:01;44.28;;;17.85;;
26060;SDS011;36331;51.378;0.018;2022-12-18T00:49:34;44.78;;;18.98;;
26060;SDS011;36331;51.378;0.018;2022-12-18T00:52:05;45.05;;;18.00;;
26060;SDS011;36331;51.378;0.018;2022-12-18T00:57:07;39.65;;;17.13;;
26060;SDS011;36331;51.378;0.018;2022-12-18T00:59:39;42.65;;;16.70;;
26060;SDS011;36331;51.378;0.018;2022-12-18T01:02:11;44.00;;;18.30;;
26060;SDS011;36331;51.378;0.018;2022-12-18T01:04:40;45.60;;;18.30;;
26060;SDS011;36331;51.378;0.018;2022-12-18T01:07:12;45.78;;;18.40;;
26060;SDS011;36331;51.378;0.018;2022-12-18T01:09:41;45.45;;;19.63;;
26060;SDS011;36331;51.378;0.018;2022-12-18T01:12:11;39.47;;;17.02;;
26060;SDS011;36331;51.378;0.018;2022-12-18T01:14:40;38.55;;;16.63;;
26060;SDS011;36331;51.378;0.018;2022-12-18T01:17:10;46.55;;;17.75;;
26060;SDS011;36331;51.378;0.018;2022-12-18T01:19:39;42.28;;;18.73;;
26060;SDS011;36331;51.378;0.018;2022-12-18T01:22:09;41.70;;;17.90;;
26060;SDS011;36331;51.378;0.018;2022-12-18T01:24:41;44.33;;;18.10;;
26060;SDS011;36331;51.378;0.018;2022-12-18T01:27:10;44.15;;;19.15;;
26060;SDS011;36331;51.378;0.018;2022-12-18T01:29:40;40.08;;;15.20;;
26060;SDS011;36331;51.378;0.018;2022-12-18T01:32:09;39.42;;;16.52;;
26060;SDS011;36331;51.378;0.018;2022-12-18T01:34:39;38.88;;;16.30;;
26060;SDS011;36331;51.378;0.018;2022-12-18T01:37:09;46.13;;;17.38;;
26060;SDS011;36331;51.378;0.018;2022-12-18T01:39:41;42.58;;;18.00;;
26060;SDS011;36331;51.378;0.018;2022-12-18T01:42:11;52.23;;;17.53;;
26060;SDS011;36331;51.378;0.018;2022-12-18T01:44:51;44.00;;;18.27;;
26060;SDS011;36331;51.378;0.018;2022-12-18T01:47:22;44.13;;;18.13;;
26060;SDS011;36331;51.378;0.018;2022-12-18T01:49:53;38.25;;;18.13;;
26060;SDS011;36331;51.378;0.018;2022-12-18T01:52:24;37.05;;;15.27;;
26060;SDS011;36331;51.378;0.018;2022-12-18T01:54:55;40.33;;;16.25;;
26060;SDS011;36331;51.378;0.018;2022-12-18T01:57:25;39.33;;;16.00;;
26060;SDS011;36331;51.378;0.018;2022-12-18T01:59:57;38.47;;;16.75;;
26060;SDS011;36331;51.378;0.018;2022-12-18T02:02:39;38.58;;;14.93;;
26060;SDS011;36331;51.378;0.018;2022-12-18T02:05:09;36.83;;;16.08;;
26060;SDS011;36331;51.378;0.018;2022-12-18T02:07:42;37.75;;;15.60;;
26060;SDS011;36331;51.378;0.018;2022-12-18T02:10:15;48.30;;;16.02;;
26060;SDS011;36331;51.378;0.018;2022-12-18T02:12:48;37.72;;;15.00;;
26060;SDS011;36331;51.378;0.018;2022-12-18T02:15:19;42.22;;;17.17;;
26060;SDS011;36331;51.378;0.018;2022-12-18T02:17:52;45.33;;;17.20;;
26060;SDS011;36331;51.378;0.018;2022-12-18T02:20:24;35.38;;;15.85;;
26060;SDS011;36331;51.378;0.018;2022-12-18T02:23:05;29.83;;;14.38;;
26060;SDS011;36331;51.378;0.018;2022-12-18T02:25:43;42.40;;;17.65;;
26060;SDS011;36331;51.378;0.018;2022-12-18T02:28:17;36.95;;;15.30;;
26060;SDS011;36331;51.378;0.018;2022-12-18T02:30:51;35.35;;;15.77;;
26060;SDS011;36331;51.378;0.018;2022-12-18T02:33:22;36.83;;;14.68;;
26060;SDS011;36331;51.378;0.018;2022-12-18T02:35:54;38.00;;;15.95;;
26060;SDS011;36331;51.378;0.018;2022-12-18T02:38:26;35.33;;;14.38;;
26060;SDS011;36331;51.378;0.018;2022-12-18T02:41:04;35.60;;;15.70;;
26060;SDS011;36331;51.378;0.018;2022-12-18T02:43:36;32.58;;;13.70;;
26060;SDS011;36331;51.378;0.018;2022-12-18T02:46:23;33.28;;;13.73;;
26060;SDS011;36331;51.378;0.018;2022-12-18T02:48:57;37.33;;;12.77;;
26060;SDS011;36331;51.378;0.018;2022-12-18T02:51:31;30.92;;;12.63;;
26060;SDS011;36331;51.378;0.018;2022-12-18T02:56:32;35.22;;;13.60;;
26060;SDS011;36331;51.378;0.018;2022-12-18T02:59:06;29.65;;;12.50;;
26060;SDS011;36331;51.378;0.018;2022-12-18T03:01:49;35.08;;;14.88;;
26060;SDS011;36331;51.378;0.018;2022-12-18T03:04:22;37.60;;;15.65;;
26060;SDS011;36331;51.378;0.018;2022-12-18T03:06:55;38.83;;;14.88;;
26060;SDS011;36331;51.378;0.018;2022-12-18T03:09:32;33.20;;;14.50;;
26060;SDS011;36331;51.378;0.018;2022-12-18T03:12:02;32.20;;;13.25;;
26060;SDS011;36331;51.378;0.018;2022-12-18T03:14:56;28.90;;;12.45;;
26060;SDS011;36331;51.378;0.018;2022-12-18T03:17:27;24.13;;;10.85;;
26060;SDS011;36331;51.378;0.018;2022-12-18T03:19:58;35.92;;;14.50;;
26060;SDS011;36331;51.378;0.018;2022-12-18T03:22:32;33.55;;;14.50;;
26060;SDS011;36331;51.378;0.018;2022-12-18T03:25:04;33.42;;;13.55;;
26060;SDS011;36331;51.378;0.018;2022-12-18T03:27:37;31.48;;;14.35;;
26060;SDS011;36331;51.378;0.018;2022-12-18T03:30:13;30.45;;;11.85;;
26060;SDS011;36331;51.378;0.018;2022-12-18T03:32:46;28.73;;;11.32;;
26060;SDS011;36331;51.378;0.018;2022-12-18T03:35:19;33.45;;;13.20;;
26060;SDS011;36331;51.378;0.018;2022-12-18T03:37:49;29.23;;;12.38;;
26060;SDS011;36331;51.378;0.018;2022-12-18T03:40:19;38.15;;;13.20;;
26060;SDS011;36331;51.378;0.018;2022-12-18T03:42:51;35.28;;;12.90;;
26060;SDS011;36331;51.378;0.018;2022-12-18T03:45:25;33.70;;;13.18;;
26060;SDS011;36331;51.378;0.018;2022-12-18T03:47:58;36.35;;;14.82;;
26060;SDS011;36331;51.378;0.018;2022-12-18T03:50:36;33.83;;;13.43;;
26060;SDS011;36331;51.378;0.018;2022-12-18T03:53:09;38.35;;;13.85;;
26060;SDS011;36331;51.378;0.018;2022-12-18T03:55:44;28.83;;;12.98;;
26060;SDS011;36331;51.378;0.018;2022-12-18T03:58:16;31.23;;;12.10;;
26060;SDS011;36331;51.378;0.018;2022-12-18T04:00:56;32.58;;;13.52;;
26060;SDS011;36331;51.378;0.018;2022-12-18T04:03:27;30.35;;;13.90;;
26060;SDS011;36331;51.378;0.018;2022-12-18T04:05:57;31.25;;;12.68;;
26060;SDS011;36331;51.378;0.018;2022-12-18T04:11:04;27.60;;;13.70;;
26060;SDS011;36331;51.378;0.018;2022-12-18T04:13:35;30.10;;;11.63;;
26060;SDS011;36331;51.378;0.018;2022-12-18T04:16:11;29.75;;;12.55;;
26060;SDS011;36331;51.378;0.018;2022-12-18T04:18:43;31.98;;;13.27;;
26060;SDS011;36331;51.378;0.018;2022-12-18T04:21:14;29.50;;;12.95;;
26060;SDS011;36331;51.378;0.018;2022-12-18T04:23:43;37.70;;;13.75;;
26060;SDS011;36331;51.378;0.018;2022-12-18T04:26:12;39.50;;;12.35;;
26060;SDS011;36331;51.378;0.018;2022-12-18T04:29:02;35.33;;;13.55;;
26060;SDS011;36331;51.378;0.018;2022-12-18T04:31:33;32.38;;;14.23;;
26060;SDS011;36331;51.378;0.018;2022-12-18T04:34:03;33.80;;;13.75;;
26060;SDS011;36331;51.378;0.018;2022-12-18T04:36:38;33.33;;;14.88;;
26060;SDS011;36331;51.378;0.018;2022-12-18T04:39:08;32.50;;;13.63;;
26060;SDS011;36331;51.378;0.018;2022-12-18T04:41:37;33.78;;;14.45;;
26060;SDS011;36331;51.378;0.018;2022-12-18T04:44:06;34.85;;;14.55;;
26060;SDS011;36331;51.378;0.018;2022-12-18T04:46:39;28.85;;;13.20;;
26060;SDS011;36331;51.378;0.018;2022-12-18T04:49:08;37.88;;;15.32;;
26060;SDS011;36331;51.378;0.018;2022-12-18T04:51:38;31.60;;;13.68;;
26060;SDS011;36331;51.378;0.018;2022-12-18T04:54:07;34.35;;;14.60;;
26060;SDS011;36331;51.378;0.018;2022-12-18T04:56:36;34.92;;;13.82;;
26060;SDS011;36331;51.378;0.018;2022-12-18T04:59:05;42.53;;;16.00;;
26060;SDS011;36331;51.378;0.018;2022-12-18T05:01:34;30.77;;;15.70;;
26060;SDS011;36331;51.378;0.018;2022-12-18T05:04:05;29.75;;;14.45;;
26060;SDS011;36331;51.378;0.018;2022-12-18T05:06:34;32.63;;;14.77;;
26060;SDS011;36331;51.378;0.018;2022-12-18T05:09:03;31.17;;;14.05;;
26060;SDS011;36331;51.378;0.018;2022-12-18T05:11:34;29.50;;;13.23;;
26060;SDS011;36331;51.378;0.018;2022-12-18T05:14:03;27.38;;;12.40;;
26060;SDS011;36331;51.378;0.018;2022-12-18T05:16:32;26.77;;;13.10;;
26060;SDS011;36331;51.378;0.018;2022-12-18T05:19:02;36.60;;;14.85;;
26060;SDS011;36331;51.378;0.018;2022-12-18T05:21:32;30.50;;;13.88;;
26060;SDS011;36331;51.378;0.018;2022-12-18T05:24:02;32.30;;;14.20;;
26060;SDS011;36331;51.378;0.018;2022-12-18T05:26:32;31.42;;;13.30;;
26060;SDS011;36331;51.378;0.018;2022-12-18T05:29:01;30.70;;;13.55;;
26060;SDS011;36331;51.378;0.018;2022-12-18T05:31:30;29.02;;;13.93;;
26060;SDS011;36331;51.378;0.018;2022-12-18T05:34:05;32.15;;;14.52;;
26060;SDS011;36331;51.378;0.018;2022-12-18T05:36:38;30.67;;;14.10;;
26060;SDS011;36331;51.378;0.018;2022-12-18T05:39:07;29.55;;;12.85;;
26060;SDS011;36331;51.378;0.018;2022-12-18T05:41:36;33.88;;;15.07;;
26060;SDS011;36331;51.378;0.018;2022-12-18T05:44:07;36.67;;;14.18;;
26060;SDS011;36331;51.378;0.018;2022-12-18T05:46:36;29.17;;;13.52;;
26060;SDS011;36331;51.378;0.018;2022-12-18T05:49:06;32.67;;;15.00;;
26060;SDS011;36331;51.378;0.018;2022-12-18T05:51:36;32.42;;;15.27;;
26060;SDS011;36331;51.378;0.018;2022-12-18T05:54:08;32.13;;;14.53;;
26060;SDS011;36331;51.378;0.018;2022-12-18T05:56:38;34.40;;;15.27;;
26060;SDS011;36331;51.378;0.018;2022-12-18T05:59:14;32.78;;;15.75;;
26060;SDS011;36331;51.378;0.018;2022-12-18T06:01:43;30.23;;;12.85;;
26060;SDS011;36331;51.378;0.018;2022-12-18T06:04:13;28.77;;;13.40;;
26060;SDS011;36331;51.378;0.018;2022-12-18T06:06:42;30.08;;;13.40;;
26060;SDS011;36331;51.378;0.018;2022-12-18T06:09:12;30.00;;;16.20;;
26060;SDS011;36331;51.378;0.018;2022-12-18T06:11:42;31.87;;;15.00;;
26060;SDS011;36331;51.378;0.018;2022-12-18T06:14:11;31.58;;;13.15;;
26060;SDS011;36331;51.378;0.018;2022-12-18T06:16:40;31.13;;;15.35;;
26060;SDS011;36331;51.378;0.018;2022-12-18T06:19:12;31.92;;;14.95;;
26060;SDS011;36331;51.378;0.018;2022-12-18T06:21:42;33.70;;;13.32;;
26060;SDS011;36331;51.378;0.018;2022-12-18T06:24:13;29.80;;;13.82;;
26060;SDS011;36331;51.378;0.018;2022-12-18T06:26:42;30.50;;;13.68;;
26060;SDS011;36331;51.378;0.018;2022-12-18T06:29:12;32.72;;;14.80;;
26060;SDS011;36331;51.378;0.018;2022-12-18T06:31:41;26.30;;;11.63;;
26060;SDS011;36331;51.378;0.018;2022-12-18T06:34:10;31.00;;;14.90;;
26060;SDS011;36331;51.378;0.018;2022-12-18T06:36:39;24.13;;;11.50;;
26060;SDS011;36331;51.378;0.018;2022-12-18T06:39:08;25.92;;;12.32;;
26060;SDS011;36331;51.378;0.018;2022-12-18T06:41:38;24.92;;;11.52;;
26060;SDS011;36331;51.378;0.018;2022-12-18T06:44:08;30.77;;;13.30;;
26060;SDS011;36331;51.378;0.018;2022-12-18T06:46:40;27.58;;;12.98;;
26060;SDS011;36331;51.378;0.018;2022-12-18T06:49:09;28.65;;;13.70;;
26060;SDS011;36331;51.378;0.018;2022-12-18T06:51:39;28.40;;;11.70;;
26060;SDS011;36331;51.378;0.018;2022-12-18T06:54:08;29.42;;;13.18;;
26060;SDS011;36331;51.378;0.018;2022-12-18T06:56:39;23.30;;;11.88;;
26060;SDS011;36331;51.378;0.018;2022-12-18T06:59:08;27.00;;;11.88;;
26060;SDS011;36331;51.378;0.018;2022-12-18T07:01:37;19.52;;;9.90;;
26060;SDS011;36331;51.378;0.018;2022-12-18T07:04:06;29.88;;;13.23;;
26060;SDS011;36331;51.378;0.018;2022-12-18T07:06:36;26.35;;;13.13;;
26060;SDS011;36331;51.378;0.018;2022-12-18T07:09:05;24.55;;;11.55;;
26060;SDS011;36331;51.378;0.018;2022-12-18T07:11:34;26.80;;;11.75;;
26060;SDS011;36331;51.378;0.018;2022-12-18T07:14:05;25.85;;;12.77;;
26060;SDS011;36331;51.378;0.018;2022-12-18T07:16:34;26.85;;;12.02;;
26060;SDS011;36331;51.378;0.018;2022-12-18T07:19:04;22.15;;;11.02;;
26060;SDS011;36331;51.378;0.018;2022-12-18T07:21:33;27.05;;;12.50;;
26060;SDS011;36331;51.378;0.018;2022-12-18T07:24:02;29.45;;;12.63;;
26060;SDS011;36331;51.378;0.018;2022-12-18T07:26:32;30.73;;;13.02;;
26060;SDS011;36331;51.378;0.018;2022-12-18T07:29:01;27.40;;;13.68;;
26060;SDS011;36331;51.378;0.018;2022-12-18T07:31:32;28.35;;;13.00;;
26060;SDS011;36331;51.378;0.018;2022-12-18T07:34:02;23.85;;;12.18;;
26060;SDS011;36331;51.378;0.018;2022-12-18T07:36:31;29.85;;;14.05;;
26060;SDS011;36331;51.378;0.018;2022-12-18T07:39:00;25.10;;;13.73;;
26060;SDS011;36331;51.378;0.018;2022-12-18T07:41:30;26.15;;;11.55;;
26060;SDS011;36331;51.378;0.018;2022-12-18T07:44:08;23.05;;;10.10;;
26060;SDS011;36331;51.378;0.018;2022-12-18T07:46:39;24.80;;;13.25;;
26060;SDS011;36331;51.378;0.018;2022-12-18T07:49:09;27.90;;;14.03;;
26060;SDS011;36331;51.378;0.018;2022-12-18T07:51:39;23.33;;;11.95;;
26060;SDS011;36331;51.378;0.018;2022-12-18T07:54:09;26.55;;;13.98;;
26060;SDS011;36331;51.378;0.018;2022-12-18T07:56:39;26.67;;;12.73;;
26060;SDS011;36331;51.378;0.018;2022-12-18T07:59:11;25.92;;;14.02;;
26060;SDS011;36331;51.378;0.018;2022-12-18T08:01:42;28.92;;;13.35;;
26060;SDS011;36331;51.378;0.018;2022-12-18T08:04:12;29.00;;;13.02;;
26060;SDS011;36331;51.378;0.018;2022-12-18T08:06:44;30.63;;;13.43;;
26060;SDS011;36331;51.378;0.018;2022-12-18T08:09:14;26.30;;;13.00;;
26060;SDS011;36331;51.378;0.018;2022-12-18T08:11:44;27.58;;;12.68;;
26060;SDS011;36331;51.378;0.018;2022-12-18T08:14:13;33.33;;;12.73;;
26060;SDS011;36331;51.378;0.018;2022-12-18T08:16:44;29.50;;;13.90;;
26060;SDS011;36331;51.378;0.018;2022-12-18T08:21:44;27.85;;;12.05;;
26060;SDS011;36331;51.378;0.018;2022-12-18T08:24:13;28.98;;;13.55;;
26060;SDS011;36331;51.378;0.018;2022-12-18T08:26:43;31.35;;;13.85;;
26060;SDS011;36331;51.378;0.018;2022-12-18T08:29:42;28.95;;;14.77;;
26060;SDS011;36331;51.378;0.018;2022-12-18T08:32:14;27.00;;;12.50;;
26060;SDS011;36331;51.378;0.018;2022-12-18T08:34:57;27.05;;;12.95;;
26060;SDS011;36331;51.378;0.018;2022-12-18T08:37:29;29.20;;;13.57;;
26060;SDS011;36331;51.378;0.018;2022-12-18T08:39:59;29.38;;;13.98;;
26060;SDS011;36331;51.378;0.018;2022-12-18T08:42:31;31.63;;;14.52;;
26060;SDS011;36331;51.378;0.018;2022-12-18T08:45:27;25.77;;;14.23;;
26060;SDS011;36331;51.378;0.018;2022-12-18T08:48:03;32.38;;;14.18;;
26060;SDS011;36331;51.378;0.018;2022-12-18T08:50:35;25.58;;;13.23;;
26060;SDS011;36331;51.378;0.018;2022-12-18T08:53:04;28.45;;;14.05;;
26060;SDS011;36331;51.378;0.018;2022-12-18T08:55:34;28.48;;;13.18;;
26060;SDS011;36331;51.378;0.018;2022-12-18T08:58:03;22.50;;;11.90;;
26060;SDS011;36331;51.378;0.018;2022-12-18T09:00:37;31.98;;;13.02;;
26060;SDS011;36331;51.378;0.018;2022-12-18T09:03:11;28.45;;;13.52;;
26060;SDS011;36331;51.378;0.018;2022-12-18T09:05:41;23.95;;;12.05;;
26060;SDS011;36331;51.378;0.018;2022-12-18T09:08:11;25.75;;;13.55;;
26060;SDS011;36331;51.378;0.018;2022-12-18T09:10:44;30.13;;;13.95;;
26060;SDS011;36331;51.378;0.018;2022-12-18T09:13:14;33.35;;;14.70;;
26060;SDS011;36331;51.378;0.018;2022-12-18T09:15:43;24.75;;;13.45;;
26060;SDS011;36331;51.378;0.018;2022-12-18T09:18:19;27.00;;;12.98;;
26060;SDS011;36331;51.378;0.018;2022-12-18T09:20:51;29.42;;;14.10;;
26060;SDS011;36331;51.378;0.018;2022-12-18T09:23:21;25.52;;;12.55;;
26060;SDS011;36331;51.378;0.018;2022-12-18T09:25:51;26.02;;;13.35;;
26060;SDS011;36331;51.378;0.018;2022-12-18T09:28:21;23.85;;;13.73;;
26060;SDS011;36331;51.378;0.018;2022-12-18T09:30:57;26.67;;;13.70;;
26060;SDS011;36331;51.378;0.018;2022-12-18T09:33:29;25.80;;;13.98;;
26060;SDS011;36331;51.378;0.018;2022-12-18T09:36:00;30.23;;;13.40;;
26060;SDS011;36331;51.378;0.018;2022-12-18T09:38:33;27.17;;;14.05;;
26060;SDS011;36331;51.378;0.018;2022-12-18T09:41:04;26.92;;;12.68;;
26060;SDS011;36331;51.378;0.018;2022-12-18T09:43:35;28.27;;;13.30;;
26060;SDS011;36331;51.378;0.018;2022-12-18T09:46:06;26.63;;;12.65;;
26060;SDS011;36331;51.378;0.018;2022-12-18T09:48:38;28.83;;;14.10;;
26060;SDS011;36331;51.378;0.018;2022-12-18T09:51:11;26.90;;;12.98;;
26060;SDS011;36331;51.378;0.018;2022-12-18T09:53:42;25.30;;;13.07;;
26060;SDS011;36331;51.378;0.018;2022-12-18T09:56:15;23.95;;;13.07;;
26060;SDS011;36331;51.378;0.018;2022-12-18T09:58:46;27.40;;;13.68;;
26060;SDS011;36331;51.378;0.018;2022-12-18T10:01:18;25.98;;;14.02;;
26060;SDS011;36331;51.378;0.018;2022-12-18T10:03:51;25.42;;;13.95;;
26060;SDS011;36331;51.378;0.018;2022-12-18T10:06:22;22.83;;;12.57;;
26060;SDS011;36331;51.378;0.018;2022-12-18T10:08:53;26.55;;;13.50;;
26060;SDS011;36331;51.378;0.018;2022-12-18T10:11:27;28.58;;;14.10;;
26060;SDS011;36331;51.378;0.018;2022-12-18T10:14:00;23.50;;;13.43;;
26060;SDS011;36331;51.378;0.018;2022-12-18T10:16:33;23.67;;;12.77;;
26060;SDS011;36331;51.378;0.018;2022-12-18T10:19:10;26.40;;;12.52;;
26060;SDS011;36331;51.378;0.018;2022-12-18T10:21:44;24.95;;;13.60;;
26060;SDS011;36331;51.378;0.018;2022-12-18T10:24:18;26.52;;;13.48;;
26060;SDS011;36331;51.378;0.018;2022-12-18T10:26:52;20.88;;;10.20;;
26060;SDS011;36331;51.378;0.018;2022-12-18T10:29:22;25.00;;;12.75;;
26060;SDS011;36331;51.378;0.018;2022-12-18T10:31:51;27.33;;;13.07;;
26060;SDS011;36331;51.378;0.018;2022-12-18T10:34:24;19.30;;;10.65;;
26060;SDS011;36331;51.378;0.018;2022-12-18T10:36:54;23.60;;;11.95;;
26060;SDS011;36331;51.378;0.018;2022-12-18T10:39:23;24.88;;;11.65;;
26060;SDS011;36331;51.378;0.018;2022-12-18T10:41:56;23.80;;;11.80;;
26060;SDS011;36331;51.378;0.018;2022-12-18T10:44:37;25.30;;;12.10;;
26060;SDS011;36331;51.378;0.018;2022-12-18T10:47:11;25.60;;;12.93;;
26060;SDS011;36331;51.378;0.018;2022-12-18T10:49:49;22.83;;;12.38;;
26060;SDS011;36331;51.378;0.018;2022-12-18T10:52:19;23.40;;;12.75;;
26060;SDS011;36331;51.378;0.018;2022-12-18T10:54:50;23.05;;;12.38;;
26060;SDS011;36331;51.378;0.018;2022-12-18T10:57:29;22.42;;;11.70;;
26060;SDS011;36331;51.378;0.018;2022-12-18T11:00:01;25.88;;;13.75;;
26060;SDS011;36331;51.378;0.018;2022-12-18T11:02:33;27.23;;;12.30;;
26060;SDS011;36331;51.378;0.018;2022-12-18T11:05:08;25.98;;;12.70;;
26060;SDS011;36331;51.378;0.018;2022-12-18T11:07:52;21.85;;;11.93;;
26060;SDS011;36331;51.378;0.018;2022-12-18T11:10:22;20.52;;;11.52;;
26060;SDS011;36331;51.378;0.018;2022-12-18T11:12:53;16.35;;;9.75;;
26060;SDS011;36331;51.378;0.018;2022-12-18T11:15:23;22.58;;;12.30;;
26060;SDS011;36331;51.378;0.018;2022-12-18T11:17:54;22.08;;;12.02;;
26060;SDS011;36331;51.378;0.018;2022-12-18T11:20:29;22.92;;;11.52;;
26060;SDS011;36331;51.378;0.018;2022-12-18T11:23:00;22.40;;;12.30;;
26060;SDS011;36331;51.378;0.018;2022-12-18T11:25:29;25.17;;;13.40;;
26060;SDS011;36331;51.378;0.018;2022-12-18T11:30:31;21.55;;;12.35;;
26060;SDS011;36331;51.378;0.018;2022-12-18T11:33:02;26.38;;;13.80;;
26060;SDS011;36331;51.378;0.018;2022-12-18T11:38:04;25.05;;;13.60;;
26060;SDS011;36331;51.378;0.018;2022-12-18T11:40:35;23.85;;;12.55;;
26060;SDS011;36331;51.378;0.018;2022-12-18T11:43:09;23.67;;;12.18;;
26060;SDS011;36331;51.378;0.018;2022-12-18T11:45:40;25.38;;;13.80;;
26060;SDS011;36331;51.378;0.018;2022-12-18T11:48:12;26.17;;;12.47;;
26060;SDS011;36331;51.378;0.018;2022-12-18T11:50:46;25.48;;;13.38;;
26060;SDS011;36331;51.378;0.018;2022-12-18T11:53:19;26.23;;;12.95;;
26060;SDS011;36331;51.378;0.018;2022-12-18T11:55:56;26.90;;;13.60;;
26060;SDS011;36331;51.378;0.018;2022-12-18T11:58:31;24.45;;;13.48;;
26060;SDS011;36331;51.378;0.018;2022-12-18T12:01:06;28.90;;;15.60;;
26060;SDS011;36331;51.378;0.018;2022-12-18T12:06:29;22.38;;;13.85;;
26060;SDS011;36331;51.378;0.018;2022-12-18T12:09:04;27.98;;;14.30;;
26060;SDS011;36331;51.378;0.018;2022-12-18T12:11:40;26.17;;;14.32;;
26060;SDS011;36331;51.378;0.018;2022-12-18T12:14:17;27.75;;;14.45;;
26060;SDS011;36331;51.378;0.018;2022-12-18T12:16:51;24.77;;;13.18;;
26060;SDS011;36331;51.378;0.018;2022-12-18T12:19:25;29.70;;;15.20;;
26060;SDS011;36331;51.378;0.018;2022-12-18T12:21:58;27.20;;;13.80;;
26060;SDS011;36331;51.378;0.018;2022-12-18T12:27:00;26.48;;;14.93;;
26060;SDS011;36331;51.378;0.018;2022-12-18T12:29:36;25.90;;;13.95;;
26060;SDS011;36331;51.378;0.018;2022-12-18T12:32:17;21.85;;;12.73;;
26060;SDS011;36331;51.378;0.018;2022-12-18T12:34:52;25.70;;;13.85;;
26060;SDS011;36331;51.378;0.018;2022-12-18T12:37:32;25.35;;;13.85;;
26060;SDS011;36331;51.378;0.018;2022-12-18T12:40:05;26.73;;;13.98;;
26060;SDS011;36331;51.378;0.018;2022-12-18T12:42:56;26.25;;;13.77;;
26060;SDS011;36331;51.378;0.018;2022-12-18T12:45:44;28.50;;;15.23;;
26060;SDS011;36331;51.378;0.018;2022-12-18T12:48:20;27.95;;;13.35;;
26060;SDS011;36331;51.378;0.018;2022-12-18T12:50:51;24.30;;;13.68;;
26060;SDS011;36331;51.378;0.018;2022-12-18T12:53:23;29.20;;;14.13;;
26060;SDS011;36331;51.378;0.018;2022-12-18T12:55:55;25.48;;;14.63;;
26060;SDS011;36331;51.378;0.018;2022-12-18T12:58:28;33.17;;;16.38;;
26060;SDS011;36331;51.378;0.018;2022-12-18T13:01:04;22.45;;;12.75;;
26060;SDS011;36331;51.378;0.018;2022-12-18T13:03:35;21.95;;;13.75;;
26060;SDS011;36331;51.378;0.018;2022-12-18T13:06:18;23.55;;;12.00;;
26060;SDS011;36331;51.378;0.018;2022-12-18T13:08:56;25.42;;;13.43;;
26060;SDS011;36331;51.378;0.018;2022-12-18T13:11:36;21.73;;;13.65;;
26060;SDS011;36331;51.378;0.018;2022-12-18T13:14:31;25.58;;;14.15;;
26060;SDS011;36331;51.378;0.018;2022-12-18T13:17:22;23.95;;;13.32;;
26060;SDS011;36331;51.378;0.018;2022-12-18T13:20:05;25.98;;;14.35;;
26060;SDS011;36331;51.378;0.018;2022-12-18T13:22:35;24.02;;;13.23;;
26060;SDS011;36331;51.378;0.018;2022-12-18T13:28:03;26.42;;;12.15;;
26060;SDS011;36331;51.378;0.018;2022-12-18T13:30:51;21.75;;;13.30;;
26060;SDS011;36331;51.378;0.018;2022-12-18T13:36:33;26.13;;;13.07;;
26060;SDS011;36331;51.378;0.018;2022-12-18T13:39:10;20.10;;;11.65;;
26060;SDS011;36331;51.378;0.018;2022-12-18T13:41:43;22.23;;;12.75;;
26060;SDS011;36331;51.378;0.018;2022-12-18T13:44:13;22.33;;;12.38;;
26060;SDS011;36331;51.378;0.018;2022-12-18T13:46:50;23.15;;;12.88;;
26060;SDS011;36331;51.378;0.018;2022-12-18T13:49:21;18.65;;;10.93;;
26060;SDS011;36331;51.378;0.018;2022-12-18T13:51:51;18.67;;;11.82;;
26060;SDS011;36331;51.378;0.018;2022-12-18T13:54:24;19.52;;;9.85;;
26060;SDS011;36331;51.378;0.018;2022-12-18T13:56:56;16.90;;;10.13;;
26060;SDS011;36331;51.378;0.018;2022-12-18T13:59:25;16.95;;;9.30;;
26060;SDS011;36331;51.378;0.018;2022-12-18T14:01:57;21.10;;;9.70;;
26060;SDS011;36331;51.378;0.018;2022-12-18T14:04:30;18.05;;;10.43;;
26060;SDS011;36331;51.378;0.018;2022-12-18T14:07:01;19.92;;;12.40;;
26060;SDS011;36331;51.378;0.018;2022-12-18T14:09:34;16.23;;;9.38;;
26060;SDS011;36331;51.378;0.018;2022-12-18T14:12:06;18.90;;;10.18;;
26060;SDS011;36331;51.378;0.018;2022-12-18T14:14:53;17.67;;;10.38;;
26060;SDS011;36331;51.378;0.018;2022-12-18T14:17:23;17.98;;;11.00;;
26060;SDS011;36331;51.378;0.018;2022-12-18T14:22:26;16.52;;;8.57;;
26060;SDS011;36331;51.378;0.018;2022-12-18T14:25:10;15.85;;;9.52;;
26060;SDS011;36331;51.378;0.018;2022-12-18T14:27:42;20.42;;;9.73;;
26060;SDS011;36331;51.378;0.018;2022-12-18T14:30:28;21.00;;;9.98;;
26060;SDS011;36331;51.378;0.018;2022-12-18T14:33:03;18.77;;;10.73;;
26060;SDS011;36331;51.378;0.018;2022-12-18T14:35:33;16.60;;;9.82;;
26060;SDS011;36331;51.378;0.018;2022-12-18T14:38:20;14.60;;;8.73;;
26060;SDS011;36331;51.378;0.018;2022-12-18T14:40:52;18.33;;;9.55;;
26060;SDS011;36331;51.378;0.018;2022-12-18T14:43:27;15.27;;;7.75;;
26060;SDS011;36331;51.378;0.018;2022-12-18T14:45:56;17.10;;;10.00;;
26060;SDS011;36331;51.378;0.018;2022-12-18T14:48:37;15.60;;;9.10;;
26060;SDS011;36331;51.378;0.018;2022-12-18T14:51:14;14.77;;;8.80;;
26060;SDS011;36331;51.378;0.018;2022-12-18T14:53:45;16.73;;;10.00;;
26060;SDS011;36331;51.378;0.018;2022-12-18T14:56:21;15.93;;;8.75;;
26060;SDS011;36331;51.378;0.018;2022-12-18T14:58:52;15.90;;;9.55;;
26060;SDS011;36331;51.378;0.018;2022-12-18T15:01:23;16.70;;;10.23;;
26060;SDS011;36331;51.378;0.018;2022-12-18T15:03:55;18.17;;;10.35;;
26060;SDS011;36331;51.378;0.018;2022-12-18T15:06:26;15.85;;;9.35;;
26060;SDS011;36331;51.378;0.018;2022-12-18T15:08:56;19.08;;;11.23;;
26060;SDS011;36331;51.378;0.018;2022-12-18T15:11:44;20.83;;;11.27;;
26060;SDS011;36331;51.378;0.018;2022-12-18T15:14:24;17.80;;;11.60;;
26060;SDS011;36331;51.378;0.018;2022-12-18T15:16:54;14.95;;;9.10;;
26060;SDS011;36331;51.378;0.018;2022-12-18T15:19:25;16.77;;;8.65;;
26060;SDS011;36331;51.378;0.018;2022-12-18T15:21:55;15.98;;;9.50;;
26060;SDS011;36331;51.378;0.018;2022-12-18T15:24:32;17.88;;;9.60;;
26060;SDS011;36331;51.378;0.018;2022-12-18T15:27:01;14.20;;;9.43;;